createdAt,value
2022-12-05T00:00:42.633Z,96143.06
2022-12-05T00:02:14.316Z,96146.19
2022-12-05T00:03:46.086Z,96155.25
2022-12-05T00:05:17.982Z,96147.38
2022-12-05T00:06:49.590Z,96163.34
2022-12-05T00:08:21.293Z,96161.91
2022-12-05T00:09:54.558Z,96170.56
2022-12-05T00:11:27.729Z,96167.94
2022-12-05T00:12:59.348Z,96169.00
2022-12-05T00:14:30.977Z,96169.00
2022-12-05T00:16:02.586Z,96175.53
2022-12-05T00:17:34.222Z,96172.13
2022-12-05T00:19:06.619Z,96183.84
2022-12-05T00:20:44.093Z,96181.88
2022-12-05T00:22:15.805Z,96171.81
2022-12-05T00:23:47.567Z,96184.97
2022-12-05T00:25:20.674Z,96193.19
2022-12-05T00:26:52.285Z,96191.31
2022-12-05T00:28:23.935Z,96192.09
2022-12-05T00:29:55.903Z,96181.75
2022-12-05T00:31:28.154Z,96170.19
2022-12-05T00:32:59.814Z,96170.56
2022-12-05T00:34:31.431Z,96170.97
2022-12-05T00:36:03.433Z,96165.53
2022-12-05T00:37:35.096Z,96169.00
2022-12-05T00:39:08.053Z,96169.00
2022-12-05T00:40:41.051Z,96166.19
2022-12-05T00:42:12.697Z,96166.88
2022-12-05T00:43:44.829Z,96173.91
2022-12-05T00:45:16.619Z,96181.31
2022-12-05T00:46:48.389Z,96182.28
2022-12-05T00:48:20.045Z,96193.47
2022-12-05T00:49:51.701Z,96201.56
2022-12-05T00:51:24.156Z,96207.41
2022-12-05T00:52:55.829Z,96205.84
2022-12-05T00:54:27.446Z,96223.00
2022-12-05T00:56:03.639Z,96233.91
2022-12-05T00:57:35.305Z,96233.91
2022-12-05T00:59:07.055Z,96239.66
2022-12-05T01:00:38.661Z,96245.59
2022-12-05T01:02:10.327Z,96257.28
2022-12-05T01:03:42.309Z,96260.41
2022-12-05T01:05:13.991Z,96264.59
2022-12-05T01:06:45.823Z,96265.66
2022-12-05T01:08:17.504Z,96278.53
2022-12-05T01:09:49.195Z,96279.81
2022-12-05T01:11:23.161Z,96275.06
2022-12-05T01:12:54.807Z,96266.09
2022-12-05T01:14:26.645Z,96269.78
2022-12-05T01:15:58.287Z,96271.34
2022-12-05T01:17:29.906Z,96258.97
2022-12-05T01:19:02.431Z,96266.88
2022-12-05T01:20:34.037Z,96260.72
2022-12-05T01:22:05.644Z,96270.34
2022-12-05T01:23:37.320Z,96270.16
2022-12-05T01:25:09.428Z,96259.63
2022-12-05T01:26:42.499Z,96248.03
2022-12-05T01:28:14.598Z,96249.78
2022-12-05T01:29:46.286Z,96250.66
2022-12-05T01:31:22.359Z,96252.72
2022-12-05T01:32:54.202Z,96255.53
2022-12-05T01:34:26.020Z,96270.34
2022-12-05T01:35:57.873Z,96269.00
2022-12-05T01:37:29.582Z,96274.44
2022-12-05T01:39:01.305Z,96269.19
2022-12-05T01:40:33.419Z,96266.53
2022-12-05T01:42:06.930Z,96257.28
2022-12-05T01:43:53.646Z,96255.44
2022-12-05T01:45:32.689Z,96262.53
2022-12-05T01:47:04.434Z,96257.28
2022-12-05T01:48:36.336Z,96267.81
2022-12-05T01:50:08.967Z,96271.13
2022-12-05T01:51:41.796Z,96276.84
2022-12-05T01:53:13.398Z,96273.94
2022-12-05T01:54:44.992Z,96274.72
2022-12-05T01:56:16.640Z,96262.63
2022-12-05T01:57:49.571Z,96254.16
2022-12-05T01:59:21.244Z,96261.25
2022-12-05T02:00:52.935Z,96263.88
2022-12-05T02:02:24.728Z,96276.00
2022-12-05T02:03:57.391Z,96282.81
2022-12-05T02:05:30.044Z,96298.34
2022-12-05T02:07:01.694Z,96307.50
2022-12-05T02:08:33.305Z,96313.53
2022-12-05T02:10:06.373Z,96314.59
2022-12-05T02:11:41.846Z,96312.75
2022-12-05T02:13:26.814Z,96315.09
2022-12-05T02:15:26.284Z,96305.81
2022-12-05T02:16:59.450Z,96303.19
2022-12-05T02:18:39.948Z,96292.66
2022-12-05T02:20:19.285Z,96288.16
2022-12-05T02:22:01.087Z,96296.56
2022-12-05T02:23:48.868Z,96293.63
2022-12-05T02:25:28.911Z,96288.16
2022-12-05T02:27:06.661Z,96287.09
2022-12-05T02:29:22.946Z,96286.31
2022-12-05T02:30:56.771Z,96278.78
2022-12-05T02:32:35.596Z,96271.47
2022-12-05T02:34:10.562Z,96279.88
2022-12-05T02:35:46.934Z,96279.69
2022-12-05T02:37:22.032Z,96278.13
2022-12-05T02:38:57.303Z,96282.13
2022-12-05T02:40:31.095Z,96287.28
2022-12-05T02:42:05.033Z,96290.69
2022-12-05T02:43:37.714Z,96291.28
2022-12-05T02:45:10.382Z,96290.50
2022-12-05T02:46:44.577Z,96294.69
2022-12-05T02:48:16.211Z,96299.97
2022-12-05T02:49:47.844Z,96295.59
2022-12-05T02:51:21.118Z,96297.53
2022-12-05T02:52:53.727Z,96292.28
2022-12-05T02:54:26.398Z,96290.91
2022-12-05T02:55:58.054Z,96298.50
2022-12-05T02:57:29.670Z,96292.75
2022-12-05T02:59:01.321Z,96291.69
2022-12-05T03:00:34.229Z,96291.28
2022-12-05T03:02:08.150Z,96289.53
2022-12-05T03:03:39.751Z,96283.78
2022-12-05T03:05:17.235Z,96294.03
2022-12-05T03:06:49.690Z,96292.94
2022-12-05T03:08:22.286Z,96290.03
2022-12-05T03:09:56.114Z,96290.22
2022-12-05T03:11:28.042Z,96292.06
2022-12-05T03:13:02.912Z,96294.44
2022-12-05T03:14:37.475Z,96294.91
2022-12-05T03:16:12.382Z,96301.03
2022-12-05T03:17:47.165Z,96302.22
2022-12-05T03:19:21.019Z,96304.66
2022-12-05T03:20:54.804Z,96292.75
2022-12-05T03:22:30.043Z,96296.97
2022-12-05T03:24:03.587Z,96295.69
2022-12-05T03:25:36.627Z,96302.91
2022-12-05T03:27:09.893Z,96304.75
2022-12-05T03:28:48.976Z,96304.44
2022-12-05T03:30:21.517Z,96308.16
2022-12-05T03:31:57.367Z,96305.59
2022-12-05T03:33:32.000Z,96305.22
2022-12-05T03:35:06.867Z,96299.69
2022-12-05T03:36:39.917Z,96302.91
2022-12-05T03:38:12.856Z,96305.22
2022-12-05T03:39:45.880Z,96311.50
2022-12-05T03:41:25.824Z,96314.97
2022-12-05T03:43:02.687Z,96316.66
2022-12-05T03:44:35.550Z,96319.28
2022-12-05T03:46:09.422Z,96324.84
2022-12-05T03:47:44.784Z,96329.31
2022-12-05T03:49:20.735Z,96323.19
2022-12-05T03:50:53.802Z,96322.81
2022-12-05T03:52:27.430Z,96315.75
2022-12-05T03:54:00.510Z,96312.16
2022-12-05T03:55:33.146Z,96318.03
2022-12-05T03:57:06.268Z,96311.50
2022-12-05T03:58:39.955Z,96309.22
2022-12-05T04:00:12.859Z,96303.28
2022-12-05T04:01:44.562Z,96303.97
2022-12-05T04:03:19.367Z,96304.06
2022-12-05T04:04:54.763Z,96301.44
2022-12-05T04:06:28.603Z,96303.78
2022-12-05T04:08:01.389Z,96302.72
2022-12-05T04:09:35.130Z,96301.75
2022-12-05T04:11:07.703Z,96299.69
2022-12-05T04:12:39.340Z,96296.66
2022-12-05T04:14:11.808Z,96298.22
2022-12-05T04:16:04.008Z,96298.81
2022-12-05T04:17:37.949Z,96288.88
2022-12-05T04:19:11.792Z,96279.88
2022-12-05T04:21:03.122Z,96281.41
2022-12-05T04:22:34.767Z,96285.94
2022-12-05T04:24:25.732Z,96283.00
2022-12-05T04:26:00.388Z,96294.50
2022-12-05T04:27:36.004Z,96290.63
2022-12-05T04:29:08.719Z,96303.09
2022-12-05T04:30:42.137Z,96301.44
2022-12-05T04:32:14.348Z,96300.66
2022-12-05T04:33:47.023Z,96306.63
2022-12-05T04:35:20.570Z,96310.53
2022-12-05T04:36:55.935Z,96303.31
2022-12-05T04:38:30.047Z,96304.09
2022-12-05T04:40:03.814Z,96314.53
2022-12-05T04:41:37.241Z,96315.69
2022-12-05T04:43:08.839Z,96315.97
2022-12-05T04:44:42.138Z,96310.72
2022-12-05T04:46:14.545Z,96311.28
2022-12-05T04:47:48.557Z,96316.28
2022-12-05T04:49:21.670Z,96318.13
2022-12-05T04:50:53.916Z,96327.06
2022-12-05T04:52:28.172Z,96325.63
2022-12-05T04:54:02.114Z,96328.25
2022-12-05T04:55:34.923Z,96331.56
2022-12-05T04:57:08.196Z,96334.41
2022-12-05T04:58:39.801Z,96342.41
2022-12-05T05:00:12.545Z,96341.53
2022-12-05T05:01:45.488Z,96337.13
2022-12-05T05:03:18.803Z,96327.00
2022-12-05T05:04:52.254Z,96315.56
2022-12-05T05:06:23.858Z,96311.97
2022-12-05T05:07:56.932Z,96306.13
2022-12-05T05:09:28.668Z,96315.56
2022-12-05T05:11:09.664Z,96316.16
2022-12-05T05:12:41.266Z,96315.97
2022-12-05T05:14:12.874Z,96320.34
2022-12-05T05:15:44.520Z,96314.19
2022-12-05T05:17:16.179Z,96321.81
2022-12-05T05:18:48.061Z,96322.78
2022-12-05T05:20:25.528Z,96329.13
2022-12-05T05:21:57.416Z,96341.72
2022-12-05T05:23:30.447Z,96345.41
2022-12-05T05:25:02.117Z,96345.22
2022-12-05T05:26:34.535Z,96343.06
2022-12-05T05:28:06.206Z,96340.81
2022-12-05T05:29:37.936Z,96346.69
2022-12-05T05:31:09.753Z,96341.50
2022-12-05T05:32:41.501Z,96337.50
2022-12-05T05:34:15.860Z,96349.91
2022-12-05T05:35:47.488Z,96352.03
2022-12-05T05:37:19.130Z,96362.38
2022-12-05T05:38:52.884Z,96363.38
2022-12-05T05:40:24.543Z,96358.50
2022-12-05T05:41:56.226Z,96364.25
2022-12-05T05:43:27.874Z,96366.78
2022-12-05T05:44:59.515Z,96372.81
2022-12-05T05:46:33.398Z,96370.41
2022-12-05T05:48:05.544Z,96373.81
2022-12-05T05:49:37.160Z,96376.06
2022-12-05T05:51:10.075Z,96383.97
2022-12-05T05:52:41.706Z,96379.06
2022-12-05T05:54:14.723Z,96376.75
2022-12-05T05:55:46.376Z,96379.19
2022-12-05T05:57:20.531Z,96387.38
2022-12-05T05:58:56.040Z,96395.53
2022-12-05T06:00:27.672Z,96391.75
2022-12-05T06:01:59.710Z,96391.56
2022-12-05T06:03:31.479Z,96391.66
2022-12-05T06:05:03.494Z,96391.28
2022-12-05T06:06:35.137Z,96400.63
2022-12-05T06:08:06.887Z,96403.38
2022-12-05T06:09:40.144Z,96403.56
2022-12-05T06:11:12.551Z,96401.31
2022-12-05T06:12:44.193Z,96415.25
2022-12-05T06:14:15.877Z,96415.47
2022-12-05T06:15:47.538Z,96424.91
2022-12-05T06:17:19.168Z,96422.56
2022-12-05T06:18:51.478Z,96427.56
2022-12-05T06:20:23.095Z,96425.41
2022-12-05T06:21:54.693Z,96424.34
2022-12-05T06:23:26.454Z,96429.00
2022-12-05T06:24:59.856Z,96430.28
2022-12-05T06:26:31.671Z,96429.22
2022-12-05T06:28:05.850Z,96432.91
2022-12-05T06:29:37.530Z,96428.44
2022-12-05T06:31:10.834Z,96424.81
2022-12-05T06:32:42.566Z,96428.53
2022-12-05T06:34:14.244Z,96428.34
2022-12-05T06:35:46.387Z,96432.72
2022-12-05T06:37:18.055Z,96431.66
2022-12-05T06:38:49.680Z,96426.38
2022-12-05T06:40:22.949Z,96427.44
2022-12-05T06:41:54.578Z,96427.94
2022-12-05T06:43:26.244Z,96423.56
2022-12-05T06:44:57.897Z,96431.25
2022-12-05T06:46:29.640Z,96439.16
2022-12-05T06:48:01.398Z,96438.56
2022-12-05T06:49:37.704Z,96437.69
2022-12-05T06:51:09.974Z,96434.28
2022-12-05T06:52:41.586Z,96442.66
2022-12-05T06:54:13.327Z,96441.00
2022-12-05T06:55:55.389Z,96453.41
2022-12-05T06:57:28.367Z,96456.22
2022-12-05T06:59:00.141Z,96466.75
2022-12-05T07:00:50.601Z,96462.09
2022-12-05T07:02:22.333Z,96466.56
2022-12-05T07:03:54.017Z,96478.41
2022-12-05T07:05:25.670Z,96474.97
2022-12-05T07:06:57.669Z,96477.13
2022-12-05T07:08:29.313Z,96481.50
2022-12-05T07:10:01.026Z,96484.16
2022-12-05T07:11:34.308Z,96488.44
2022-12-05T07:13:06.056Z,96482.38
2022-12-05T07:14:47.558Z,96482.78
2022-12-05T07:16:20.112Z,96484.66
2022-12-05T07:17:51.791Z,96487.78
2022-12-05T07:19:23.487Z,96486.28
2022-12-05T07:21:14.271Z,96484.88
2022-12-05T07:22:46.252Z,96479.91
2022-12-05T07:24:17.858Z,96482.84
2022-12-05T07:25:49.482Z,96488.78
2022-12-05T07:27:27.173Z,96491.13
2022-12-05T07:28:59.502Z,96500.91
2022-12-05T07:30:31.163Z,96493.00
2022-12-05T07:32:03.012Z,96495.06
2022-12-05T07:33:34.910Z,96512.44
2022-12-05T07:35:07.066Z,96498.97
2022-12-05T07:36:38.690Z,96507.97
2022-12-05T07:38:10.340Z,96506.59
2022-12-05T07:39:41.975Z,96504.84
2022-12-05T07:41:15.089Z,96503.16
2022-12-05T07:42:49.331Z,96498.38
2022-12-05T07:44:20.954Z,96495.25
2022-12-05T07:45:52.728Z,96512.63
2022-12-05T07:47:24.534Z,96507.72
2022-12-05T07:48:56.256Z,96506.78
2022-12-05T07:50:27.880Z,96513.41
2022-12-05T07:51:59.509Z,96499.94
2022-12-05T07:53:31.318Z,96514.69
2022-12-05T07:55:02.948Z,96521.63
2022-12-05T07:56:34.641Z,96516.66
2022-12-05T07:58:07.676Z,96519.47
2022-12-05T07:59:39.308Z,96522.69
2022-12-05T08:01:12.117Z,96519.28
2022-12-05T08:02:43.842Z,96527.50
2022-12-05T08:04:16.105Z,96533.25
2022-12-05T08:05:47.760Z,96536.38
2022-12-05T08:07:19.381Z,96539.00
2022-12-05T08:08:51.313Z,96534.22
2022-12-05T08:10:22.970Z,96535.88
2022-12-05T08:11:54.612Z,96535.69
2022-12-05T08:13:27.604Z,96539.00
2022-12-05T08:14:59.232Z,96542.44
2022-12-05T08:16:31.247Z,96554.34
2022-12-05T08:18:03.022Z,96552.88
2022-12-05T08:19:34.669Z,96551.78
2022-12-05T08:21:07.683Z,96553.28
2022-12-05T08:22:39.378Z,96559.53
2022-12-05T08:24:11.067Z,96568.41
2022-12-05T08:25:43.264Z,96565.59
2022-12-05T08:27:14.961Z,96565.88
2022-12-05T08:28:50.608Z,96558.94
2022-12-05T08:30:22.250Z,96560.31
2022-12-05T08:31:54.132Z,96565.09
2022-12-05T08:33:25.782Z,96563.81
2022-12-05T08:34:57.421Z,96561.09
2022-12-05T08:36:29.416Z,96558.94
2022-12-05T08:38:01.057Z,96562.06
2022-12-05T08:39:38.214Z,96564.59
2022-12-05T08:41:11.983Z,96565.56
2022-12-05T08:42:47.073Z,96571.53
2022-12-05T08:44:20.087Z,96574.28
2022-12-05T08:45:51.859Z,96567.63
2022-12-05T08:47:23.545Z,96568.09
2022-12-05T08:48:55.371Z,96562.06
2022-12-05T08:50:27.019Z,96562.84
2022-12-05T08:51:58.719Z,96569.09
2022-12-05T08:53:30.355Z,96561.84
2022-12-05T08:55:02.027Z,96567.59
2022-12-05T08:56:33.919Z,96561.84
2022-12-05T08:58:05.570Z,96562.63
2022-12-05T08:59:38.587Z,96559.69
2022-12-05T09:01:12.073Z,96566.22
2022-12-05T09:02:43.959Z,96558.59
2022-12-05T09:04:15.682Z,96560.94
2022-12-05T09:05:47.296Z,96552.44
2022-12-05T09:07:18.917Z,96553.22
2022-12-05T09:08:56.467Z,96557.44
2022-12-05T09:10:28.134Z,96550.00
2022-12-05T09:12:00.347Z,96548.94
2022-12-05T09:13:32.042Z,96558.72
2022-12-05T09:15:06.690Z,96568.47
2022-12-05T09:16:39.409Z,96566.41
2022-12-05T09:18:12.677Z,96578.56
2022-12-05T09:19:45.119Z,96574.06
2022-12-05T09:21:17.915Z,96578.44
2022-12-05T09:22:49.594Z,96582.06
2022-12-05T09:24:21.367Z,96584.56
2022-12-05T09:25:53.625Z,96588.78
2022-12-05T09:27:25.247Z,96588.78
2022-12-05T09:28:56.987Z,96586.72
2022-12-05T09:30:29.942Z,96585.19
2022-12-05T09:32:01.553Z,96574.31
2022-12-05T09:33:34.896Z,96581.16
2022-12-05T09:35:07.070Z,96588.78
2022-12-05T09:36:38.729Z,96585.06
2022-12-05T09:38:10.352Z,96583.97
2022-12-05T09:39:43.342Z,96589.75
2022-12-05T09:41:43.089Z,96572.03
2022-12-05T09:43:19.016Z,96572.53
2022-12-05T09:45:05.048Z,96566.75
2022-12-05T09:46:42.726Z,96568.88
2022-12-05T09:48:15.067Z,96572.03
2022-12-05T09:49:48.152Z,96565.66
2022-12-05T09:51:19.831Z,96572.50
2022-12-05T09:53:02.462Z,96573.09
2022-12-05T09:54:34.118Z,96580.13
2022-12-05T09:56:06.416Z,96562.72
2022-12-05T09:57:40.029Z,96568.59
2022-12-05T09:59:13.345Z,96567.31
2022-12-05T10:00:44.997Z,96569.19
2022-12-05T10:02:23.184Z,96571.25
2022-12-05T10:04:08.008Z,96571.72
2022-12-05T10:05:41.594Z,96577.31
2022-12-05T10:07:15.871Z,96574.47
2022-12-05T10:09:00.194Z,96578.97
2022-12-05T10:10:35.049Z,96571.03
2022-12-05T10:12:11.593Z,96582.69
2022-12-05T10:13:48.031Z,96572.91
2022-12-05T10:15:23.250Z,96585.31
2022-12-05T10:16:55.673Z,96580.25
2022-12-05T10:18:33.949Z,96573.88
2022-12-05T10:20:09.498Z,96577.78
2022-12-05T10:21:44.904Z,96564.09
2022-12-05T10:23:41.215Z,96559.00
2022-12-05T10:25:09.841Z,96557.94
2022-12-05T10:26:47.439Z,96564.47
2022-12-05T10:28:26.041Z,96557.31
2022-12-05T10:29:58.515Z,96555.00
2022-12-05T10:31:32.499Z,96562.91
2022-12-05T10:33:09.532Z,96559.97
2022-12-05T10:34:43.346Z,96567.41
2022-12-05T10:36:15.540Z,96567.13
2022-12-05T10:37:48.621Z,96561.34
2022-12-05T10:39:20.280Z,96564.78
2022-12-05T10:40:53.043Z,96559.19
2022-12-05T10:42:29.123Z,96559.97
2022-12-05T10:44:05.219Z,96561.22
2022-12-05T10:45:37.347Z,96561.53
2022-12-05T10:47:09.092Z,96563.09
2022-12-05T10:48:41.255Z,96553.78
2022-12-05T10:50:25.928Z,96551.44
2022-12-05T10:51:57.588Z,96555.16
2022-12-05T10:53:31.893Z,96554.09
2022-12-05T10:55:05.255Z,96550.38
2022-12-05T10:56:38.377Z,96547.44
2022-12-05T10:58:17.099Z,96547.72
2022-12-05T10:59:49.510Z,96549.00
2022-12-05T11:01:21.708Z,96548.69
2022-12-05T11:02:54.028Z,96552.41
2022-12-05T11:04:28.169Z,96557.09
2022-12-05T11:06:01.913Z,96555.22
2022-12-05T11:07:34.281Z,96550.13
2022-12-05T11:09:13.237Z,96545.91
2022-12-05T11:10:44.928Z,96549.34
2022-12-05T11:12:21.117Z,96543.59
2022-12-05T11:13:53.613Z,96534.44
2022-12-05T11:15:26.254Z,96540.22
2022-12-05T11:16:59.142Z,96528.00
2022-12-05T11:18:32.060Z,96529.56
2022-12-05T11:20:12.771Z,96536.41
2022-12-05T11:21:45.776Z,96529.72
2022-12-05T11:23:25.159Z,96538.44
2022-12-05T11:24:57.108Z,96537.94
2022-12-05T11:26:34.668Z,96535.00
2022-12-05T11:28:34.152Z,96530.97
2022-12-05T11:30:18.936Z,96538.91
2022-12-05T11:31:51.016Z,96533.63
2022-12-05T11:33:23.482Z,96526.19
2022-12-05T11:34:58.760Z,96514.69
2022-12-05T11:36:36.712Z,96519.38
2022-12-05T11:38:10.880Z,96521.09
2022-12-05T11:39:42.527Z,96521.75
2022-12-05T11:41:27.617Z,96521.16
2022-12-05T11:43:22.243Z,96521.03
2022-12-05T11:45:17.540Z,96519.03
2022-12-05T11:46:55.663Z,96513.94
2022-12-05T11:48:44.391Z,96523.25
2022-12-05T11:50:32.885Z,96518.13
2022-12-05T11:52:08.686Z,96522.03
2022-12-05T11:54:03.395Z,96508.03
2022-12-05T11:55:37.346Z,96507.25
2022-12-05T11:57:11.491Z,96512.06
2022-12-05T11:58:53.936Z,96506.78
2022-12-05T12:00:26.898Z,96511.16
2022-12-05T12:02:01.450Z,96504.78
2022-12-05T12:04:00.267Z,96497.47
2022-12-05T12:05:33.995Z,96499.03
2022-12-05T12:07:14.624Z,96504.78
2022-12-05T12:08:52.216Z,96505.41
2022-12-05T12:10:28.207Z,96502.16
2022-12-05T12:12:02.800Z,96506.66
2022-12-05T12:13:42.308Z,96497.66
2022-12-05T12:15:24.397Z,96488.63
2022-12-05T12:17:02.183Z,96489.41
2022-12-05T12:18:44.592Z,96491.16
2022-12-05T12:20:27.200Z,96485.41
2022-12-05T12:22:19.991Z,96481.06
2022-12-05T12:24:05.805Z,96487.13
2022-12-05T12:25:42.935Z,96489.00
2022-12-05T12:27:17.477Z,96486.97
2022-12-05T12:29:02.943Z,96487.28
2022-12-05T12:30:41.927Z,96493.31
2022-12-05T12:32:20.198Z,96497.03
2022-12-05T12:33:54.817Z,96495.47
2022-12-05T12:35:33.148Z,96498.25
2022-12-05T12:37:09.623Z,96499.03
2022-12-05T12:38:52.403Z,96499.34
2022-12-05T12:40:27.827Z,96495.13
2022-12-05T12:42:08.682Z,96491.41
2022-12-05T12:43:54.474Z,96494.38
2022-12-05T12:45:56.125Z,96492.66
2022-12-05T12:47:32.540Z,96488.47
2022-12-05T12:49:15.504Z,96497.78
2022-12-05T12:50:49.672Z,96505.38
2022-12-05T12:52:23.403Z,96506.16
2022-12-05T12:54:11.825Z,96507.72
2022-12-05T12:55:46.124Z,96511.44
2022-12-05T12:57:24.084Z,96510.97
2022-12-05T12:58:59.174Z,96515.31
2022-12-05T13:00:36.022Z,96507.22
2022-12-05T13:02:12.983Z,96510.03
2022-12-05T13:03:51.428Z,96513.28
2022-12-05T13:05:26.193Z,96506.75
2022-12-05T13:06:59.753Z,96508.59
2022-12-05T13:08:34.031Z,96508.13
2022-12-05T13:10:07.199Z,96512.13
2022-12-05T13:11:40.374Z,96498.66
2022-12-05T13:13:14.396Z,96507.53
2022-12-05T13:14:49.177Z,96510.94
2022-12-05T13:16:23.927Z,96512.03
2022-12-05T13:17:55.557Z,96508.00
2022-12-05T13:19:28.842Z,96509.72
2022-12-05T13:21:02.578Z,96505.25
2022-12-05T13:22:34.215Z,96503.25
2022-12-05T13:24:06.415Z,96499.81
2022-12-05T13:25:40.830Z,96497.47
2022-12-05T13:27:15.645Z,96492.19
2022-12-05T13:28:53.390Z,96499.19
2022-12-05T13:30:28.135Z,96493.13
2022-12-05T13:32:00.558Z,96494.69
2022-12-05T13:33:34.292Z,96506.34
2022-12-05T13:35:09.662Z,96496.25
2022-12-05T13:36:59.723Z,96498.78
2022-12-05T13:38:51.809Z,96497.69
2022-12-05T13:40:46.858Z,96497.22
2022-12-05T13:42:21.327Z,96492.09
2022-12-05T13:44:05.893Z,96498.78
2022-12-05T13:45:38.373Z,96490.84
2022-12-05T13:47:22.240Z,96496.44
2022-12-05T13:49:01.390Z,96490.66
2022-12-05T13:50:36.489Z,96499.19
2022-12-05T13:52:09.789Z,96495.00
2022-12-05T13:53:42.422Z,96488.78
2022-12-05T13:55:20.245Z,96490.63
2022-12-05T13:56:52.941Z,96490.16
2022-12-05T13:58:41.329Z,96493.91
2022-12-05T14:00:31.738Z,96493.13
2022-12-05T14:02:26.602Z,96485.38
2022-12-05T14:03:59.027Z,96487.06
2022-12-05T14:05:47.467Z,96487.22
2022-12-05T14:07:41.800Z,96479.44
2022-12-05T14:09:28.208Z,96483.03
2022-12-05T14:11:10.551Z,96486.75
2022-12-05T14:12:53.966Z,96490.03
2022-12-05T14:14:58.750Z,96484.25
2022-12-05T14:16:50.061Z,96488.63
2022-12-05T14:18:23.596Z,96491.25
2022-12-05T14:20:05.113Z,96498.09
2022-12-05T14:21:38.695Z,96492.97
2022-12-05T14:23:17.577Z,96488.75
2022-12-05T14:24:52.743Z,96484.56
2022-12-05T14:26:35.038Z,96480.69
2022-12-05T14:28:18.065Z,96484.22
2022-12-05T14:29:57.421Z,96482.94
2022-12-05T14:31:39.105Z,96485.22
2022-12-05T14:33:16.161Z,96490.56
2022-12-05T14:34:52.967Z,96486.09
2022-12-05T14:36:30.840Z,96489.53
2022-12-05T14:38:03.487Z,96488.56
2022-12-05T14:39:39.946Z,96500.53
2022-12-05T14:41:13.155Z,96496.03
2022-12-05T14:42:51.959Z,96505.28
2022-12-05T14:44:24.581Z,96497.88
2022-12-05T14:45:58.691Z,96499.59
2022-12-05T14:47:31.888Z,96507.56
2022-12-05T14:49:37.710Z,96504.56
2022-12-05T14:51:43.783Z,96509.63
2022-12-05T14:53:37.523Z,96504.47
2022-12-05T14:55:12.188Z,96498.41
2022-12-05T14:56:44.694Z,96501.66
2022-12-05T14:58:17.756Z,96503.81
2022-12-05T14:59:51.524Z,96517.41
2022-12-05T15:01:24.189Z,96502.16
2022-12-05T15:02:56.048Z,96502.16
2022-12-05T15:04:32.452Z,96502.47
2022-12-05T15:06:06.391Z,96505.72
2022-12-05T15:07:38.661Z,96513.97
2022-12-05T15:09:36.506Z,96511.06
2022-12-05T15:11:11.271Z,96513.28
2022-12-05T15:12:45.116Z,96516.81
2022-12-05T15:14:19.315Z,96524.50
2022-12-05T15:15:55.100Z,96520.28
2022-12-05T15:17:29.883Z,96521.63
2022-12-05T15:19:04.122Z,96524.75
2022-12-05T15:20:40.890Z,96517.13
2022-12-05T15:22:14.943Z,96526.91
2022-12-05T15:23:47.761Z,96524.75
2022-12-05T15:25:24.135Z,96525.47
2022-12-05T15:26:56.378Z,96534.97
2022-12-05T15:28:28.015Z,96531.53
2022-12-05T15:29:59.697Z,96524.13
2022-12-05T15:31:32.702Z,96523.59
2022-12-05T15:33:04.450Z,96526.63
2022-12-05T15:34:37.339Z,96535.28
2022-12-05T15:36:08.994Z,96532.03
2022-12-05T15:37:47.801Z,96533.06
2022-12-05T15:39:23.949Z,96533.53
2022-12-05T15:40:55.697Z,96527.47
2022-12-05T15:42:30.135Z,96526.88
2022-12-05T15:44:02.169Z,96537.38
2022-12-05T15:45:33.818Z,96530.53
2022-12-05T15:47:05.451Z,96537.38
2022-12-05T15:48:37.174Z,96535.94
2022-12-05T15:50:12.959Z,96531.31
2022-12-05T15:51:44.572Z,96532.69
2022-12-05T15:53:18.140Z,96533.09
2022-12-05T15:54:49.745Z,96528.81
2022-12-05T15:56:22.444Z,96538.09
2022-12-05T15:57:56.115Z,96542.63
2022-12-05T15:59:29.076Z,96532.06
2022-12-05T16:01:01.697Z,96542.16
2022-12-05T16:02:36.967Z,96543.50
2022-12-05T16:04:14.491Z,96542.81
2022-12-05T16:05:47.850Z,96537.34
2022-12-05T16:07:19.578Z,96548.97
2022-12-05T16:08:52.693Z,96546.63
2022-12-05T16:10:29.284Z,96552.69
2022-12-05T16:12:01.898Z,96553.19
2022-12-05T16:13:33.590Z,96547.22
2022-12-05T16:15:08.535Z,96557.97
2022-12-05T16:16:42.969Z,96554.63
2022-12-05T16:18:26.737Z,96561.47
2022-12-05T16:20:20.570Z,96557.75
2022-12-05T16:22:00.082Z,96554.25
2022-12-05T16:23:32.742Z,96561.69
2022-12-05T16:25:12.875Z,96557.47
2022-12-05T16:26:44.489Z,96564.13
2022-12-05T16:28:17.205Z,96559.16
2022-12-05T16:30:06.438Z,96558.56
2022-12-05T16:31:39.016Z,96553.19
2022-12-05T16:33:13.422Z,96544.09
2022-12-05T16:34:45.539Z,96543.88
2022-12-05T16:36:17.217Z,96557.06
2022-12-05T16:37:48.883Z,96546.13
2022-12-05T16:39:20.745Z,96557.16
2022-12-05T16:41:00.314Z,96549.78
2022-12-05T16:42:34.559Z,96541.56
2022-12-05T16:45:04.940Z,96543.13
2022-12-05T16:46:44.217Z,96550.13
2022-12-05T16:48:21.354Z,96548.69
2022-12-05T16:49:52.989Z,96543.72
2022-12-05T16:51:28.674Z,96547.81
2022-12-05T16:53:01.928Z,96537.56
2022-12-05T16:54:33.601Z,96546.53
2022-12-05T16:56:09.541Z,96548.19
2022-12-05T16:57:41.343Z,96548.69
2022-12-05T16:59:16.687Z,96552.91
2022-12-05T17:00:48.489Z,96550.31
2022-12-05T17:02:20.407Z,96546.16
2022-12-05T17:03:53.474Z,96557.19
2022-12-05T17:05:28.526Z,96550.06
2022-12-05T17:07:00.167Z,96554.63
2022-12-05T17:08:34.585Z,96553.66
2022-12-05T17:10:07.787Z,96551.03
2022-12-05T17:11:41.513Z,96555.31
2022-12-05T17:13:13.703Z,96553.38
2022-12-05T17:14:47.157Z,96555.22
2022-12-05T17:16:20.574Z,96545.94
2022-12-05T17:17:52.395Z,96552.50
2022-12-05T17:19:24.437Z,96552.50
2022-12-05T17:20:56.183Z,96559.03
2022-12-05T17:22:28.226Z,96549.56
2022-12-05T17:23:59.903Z,96551.31
2022-12-05T17:25:33.160Z,96552.97
2022-12-05T17:27:09.344Z,96547.59
2022-12-05T17:28:41.096Z,96551.53
2022-12-05T17:30:13.257Z,96549.16
2022-12-05T17:31:45.095Z,96544.97
2022-12-05T17:33:18.766Z,96552.38
2022-12-05T17:34:50.552Z,96549.75
2022-12-05T17:36:22.822Z,96547.59
2022-12-05T17:37:54.439Z,96552.97
2022-12-05T17:39:28.654Z,96549.25
2022-12-05T17:41:03.997Z,96552.00
2022-12-05T17:42:40.227Z,96564.59
2022-12-05T17:44:13.630Z,96559.69
2022-12-05T17:45:47.817Z,96564.19
2022-12-05T17:47:19.476Z,96554.94
2022-12-05T17:48:51.351Z,96551.00
2022-12-05T17:50:25.240Z,96555.22
2022-12-05T17:52:20.929Z,96555.03
2022-12-05T17:53:50.047Z,96558.16
2022-12-05T17:55:23.650Z,96562.63
2022-12-05T17:56:55.319Z,96556.50
2022-12-05T17:58:28.322Z,96559.44
2022-12-05T17:59:59.942Z,96560.31
2022-12-05T18:01:31.648Z,96555.63
2022-12-05T18:03:03.405Z,96559.63
2022-12-05T18:04:35.246Z,96564.22
2022-12-05T18:06:07.669Z,96561.28
2022-12-05T18:07:39.432Z,96561.09
2022-12-05T18:09:11.146Z,96561.19
2022-12-05T18:10:42.844Z,96561.78
2022-12-05T18:12:14.493Z,96568.31
2022-12-05T18:13:47.702Z,96562.25
2022-12-05T18:15:19.350Z,96562.84
2022-12-05T18:16:51.009Z,96567.72
2022-12-05T18:18:22.677Z,96564.59
2022-12-05T18:19:55.991Z,96568.31
2022-12-05T18:21:27.643Z,96571.63
2022-12-05T18:22:59.384Z,96568.41
2022-12-05T18:24:33.423Z,96570.25
2022-12-05T18:26:05.433Z,96572.22
2022-12-05T18:27:37.666Z,96568.91
2022-12-05T18:29:10.656Z,96575.44
2022-12-05T18:30:44.019Z,96575.16
2022-12-05T18:32:18.647Z,96580.31
2022-12-05T18:33:50.542Z,96578.19
2022-12-05T18:35:40.559Z,96579.06